sensor_id;sensor_type;location;lat;lon;timestamp;P1;durP1;ratioP1;P2;durP2;ratioP2
41217;SDS011;26950;50.960;7.138;2023-06-22T00:01:08;6.80;;;4.65;;
41217;SDS011;26950;50.960;7.138;2023-06-22T00:03:35;8.50;;;5.10;;
41217;SDS011;26950;50.960;7.138;2023-06-22T00:06:01;5.38;;;4.57;;
41217;SDS011;26950;50.960;7.138;2023-06-22T00:08:28;8.10;;;4.60;;
41217;SDS011;26950;50.960;7.138;2023-06-22T00:10:54;7.03;;;4.85;;
41217;SDS011;26950;50.960;7.138;2023-06-22T00:13:21;4.95;;;4.28;;
41217;SDS011;26950;50.960;7.138;2023-06-22T00:15:47;5.75;;;4.38;;
41217;SDS011;26950;50.960;7.138;2023-06-22T00:18:15;8.80;;;5.18;;
41217;SDS011;26950;50.960;7.138;2023-06-22T00:20:42;4.90;;;4.40;;
41217;SDS011;26950;50.960;7.138;2023-06-22T00:23:10;10.00;;;4.80;;
41217;SDS011;26950;50.960;7.138;2023-06-22T00:25:38;5.72;;;4.53;;
41217;SDS011;26950;50.960;7.138;2023-06-22T00:28:05;6.95;;;4.65;;
41217;SDS011;26950;50.960;7.138;2023-06-22T00:30:32;6.07;;;4.40;;
41217;SDS011;26950;50.960;7.138;2023-06-22T00:32:59;5.93;;;4.75;;
41217;SDS011;26950;50.960;7.138;2023-06-22T00:35:27;5.75;;;4.65;;
41217;SDS011;26950;50.960;7.138;2023-06-22T00:37:54;5.25;;;4.03;;
41217;SDS011;26950;50.960;7.138;2023-06-22T00:40:25;8.90;;;4.53;;
41217;SDS011;26950;50.960;7.138;2023-06-22T00:42:53;7.72;;;4.47;;
41217;SDS011;26950;50.960;7.138;2023-06-22T00:45:20;7.38;;;4.80;;
41217;SDS011;26950;50.960;7.138;2023-06-22T00:47:46;5.05;;;4.38;;
41217;SDS011;26950;50.960;7.138;2023-06-22T00:50:14;6.30;;;4.65;;
41217;SDS011;26950;50.960;7.138;2023-06-22T00:52:47;8.75;;;4.50;;
41217;SDS011;26950;50.960;7.138;2023-06-22T00:55:17;6.30;;;4.45;;
41217;SDS011;26950;50.960;7.138;2023-06-22T00:57:44;8.13;;;4.47;;
41217;SDS011;26950;50.960;7.138;2023-06-22T01:00:12;5.50;;;4.20;;
41217;SDS011;26950;50.960;7.138;2023-06-22T01:02:43;5.85;;;4.55;;
41217;SDS011;26950;50.960;7.138;2023-06-22T01:05:11;7.70;;;4.20;;
41217;SDS011;26950;50.960;7.138;2023-06-22T01:07:39;7.15;;;4.80;;
41217;SDS011;26950;50.960;7.138;2023-06-22T01:10:14;6.70;;;4.15;;
41217;SDS011;26950;50.960;7.138;2023-06-22T01:12:45;5.95;;;4.13;;
41217;SDS011;26950;50.960;7.138;2023-06-22T01:15:18;5.32;;;4.43;;
41217;SDS011;26950;50.960;7.138;2023-06-22T01:17:49;5.20;;;4.30;;
41217;SDS011;26950;50.960;7.138;2023-06-22T01:20:18;8.70;;;4.43;;
41217;SDS011;26950;50.960;7.138;2023-06-22T01:22:49;7.22;;;4.45;;
41217;SDS011;26950;50.960;7.138;2023-06-22T01:25:28;5.95;;;4.25;;
41217;SDS011;26950;50.960;7.138;2023-06-22T01:28:03;5.70;;;4.53;;
41217;SDS011;26950;50.960;7.138;2023-06-22T01:30:41;5.97;;;4.65;;
41217;SDS011;26950;50.960;7.138;2023-06-22T01:33:11;7.32;;;4.75;;
41217;SDS011;26950;50.960;7.138;2023-06-22T01:35:39;5.93;;;4.70;;
41217;SDS011;26950;50.960;7.138;2023-06-22T01:38:07;5.68;;;4.35;;
41217;SDS011;26950;50.960;7.138;2023-06-22T01:40:35;8.38;;;4.55;;
41217;SDS011;26950;50.960;7.138;2023-06-22T01:43:03;7.93;;;5.20;;
41217;SDS011;26950;50.960;7.138;2023-06-22T01:45:30;7.30;;;4.82;;
41217;SDS011;26950;50.960;7.138;2023-06-22T01:47:58;6.70;;;4.57;;
41217;SDS011;26950;50.960;7.138;2023-06-22T01:50:26;7.63;;;5.07;;
41217;SDS011;26950;50.960;7.138;2023-06-22T01:52:52;6.75;;;4.25;;
41217;SDS011;26950;50.960;7.138;2023-06-22T01:55:19;5.85;;;4.47;;
41217;SDS011;26950;50.960;7.138;2023-06-22T01:57:45;7.15;;;5.10;;
41217;SDS011;26950;50.960;7.138;2023-06-22T02:00:13;6.53;;;4.43;;
41217;SDS011;26950;50.960;7.138;2023-06-22T02:02:45;10.18;;;4.75;;
41217;SDS011;26950;50.960;7.138;2023-06-22T02:05:19;6.95;;;4.78;;
41217;SDS011;26950;50.960;7.138;2023-06-22T02:07:49;8.18;;;4.60;;
41217;SDS011;26950;50.960;7.138;2023-06-22T02:10:19;6.13;;;4.78;;
41217;SDS011;26950;50.960;7.138;2023-06-22T02:12:47;7.05;;;4.70;;
41217;SDS011;26950;50.960;7.138;2023-06-22T02:15:16;5.35;;;4.30;;
41217;SDS011;26950;50.960;7.138;2023-06-22T02:17:43;5.50;;;4.50;;
41217;SDS011;26950;50.960;7.138;2023-06-22T02:20:11;5.78;;;4.45;;
41217;SDS011;26950;50.960;7.138;2023-06-22T02:22:40;6.80;;;4.47;;
41217;SDS011;26950;50.960;7.138;2023-06-22T02:25:06;5.13;;;4.22;;
41217;SDS011;26950;50.960;7.138;2023-06-22T02:27:33;7.57;;;4.57;;
41217;SDS011;26950;50.960;7.138;2023-06-22T02:30:00;5.45;;;4.55;;
41217;SDS011;26950;50.960;7.138;2023-06-22T02:32:30;6.40;;;4.75;;
41217;SDS011;26950;50.960;7.138;2023-06-22T02:34:59;6.45;;;4.88;;
41217;SDS011;26950;50.960;7.138;2023-06-22T02:37:29;6.03;;;4.07;;
41217;SDS011;26950;50.960;7.138;2023-06-22T02:39:56;8.55;;;4.82;;
41217;SDS011;26950;50.960;7.138;2023-06-22T02:42:23;8.18;;;4.68;;
41217;SDS011;26950;50.960;7.138;2023-06-22T02:44:49;8.45;;;4.47;;
41217;SDS011;26950;50.960;7.138;2023-06-22T02:47:16;8.18;;;4.65;;
41217;SDS011;26950;50.960;7.138;2023-06-22T02:49:42;6.78;;;4.40;;
41217;SDS011;26950;50.960;7.138;2023-06-22T02:52:10;10.68;;;4.88;;
41217;SDS011;26950;50.960;7.138;2023-06-22T02:54:36;8.05;;;4.57;;
41217;SDS011;26950;50.960;7.138;2023-06-22T02:57:04;7.38;;;4.35;;
41217;SDS011;26950;50.960;7.138;2023-06-22T02:59:31;7.72;;;4.65;;
41217;SDS011;26950;50.960;7.138;2023-06-22T03:01:57;5.82;;;4.82;;
41217;SDS011;26950;50.960;7.138;2023-06-22T03:04:24;7.07;;;5.13;;
41217;SDS011;26950;50.960;7.138;2023-06-22T03:06:50;5.47;;;4.88;;
41217;SDS011;26950;50.960;7.138;2023-06-22T03:09:19;5.90;;;5.00;;
41217;SDS011;26950;50.960;7.138;2023-06-22T03:11:46;6.45;;;4.82;;
41217;SDS011;26950;50.960;7.138;2023-06-22T03:14:14;6.13;;;5.15;;
41217;SDS011;26950;50.960;7.138;2023-06-22T03:16:40;6.53;;;4.95;;
41217;SDS011;26950;50.960;7.138;2023-06-22T03:19:07;6.55;;;5.00;;
41217;SDS011;26950;50.960;7.138;2023-06-22T03:21:33;5.60;;;5.00;;
41217;SDS011;26950;50.960;7.138;2023-06-22T03:23:59;8.13;;;4.93;;
41217;SDS011;26950;50.960;7.138;2023-06-22T03:26:26;8.32;;;5.18;;
41217;SDS011;26950;50.960;7.138;2023-06-22T03:28:52;6.65;;;4.75;;
41217;SDS011;26950;50.960;7.138;2023-06-22T03:31:20;5.70;;;4.97;;
41217;SDS011;26950;50.960;7.138;2023-06-22T03:33:47;6.25;;;5.05;;
41217;SDS011;26950;50.960;7.138;2023-06-22T03:36:14;6.05;;;4.85;;
41217;SDS011;26950;50.960;7.138;2023-06-22T03:38:43;8.45;;;5.07;;
41217;SDS011;26950;50.960;7.138;2023-06-22T03:41:12;7.80;;;5.13;;
41217;SDS011;26950;50.960;7.138;2023-06-22T03:43:39;5.65;;;4.93;;
41217;SDS011;26950;50.960;7.138;2023-06-22T03:46:05;7.75;;;5.13;;
41217;SDS011;26950;50.960;7.138;2023-06-22T03:48:33;5.97;;;5.00;;
41217;SDS011;26950;50.960;7.138;2023-06-22T03:51:01;7.00;;;4.97;;
41217;SDS011;26950;50.960;7.138;2023-06-22T03:53:28;7.43;;;5.30;;
41217;SDS011;26950;50.960;7.138;2023-06-22T03:55:55;6.05;;;5.03;;
41217;SDS011;26950;50.960;7.138;2023-06-22T03:58:22;6.55;;;5.25;;
41217;SDS011;26950;50.960;7.138;2023-06-22T04:00:48;7.88;;;5.43;;
41217;SDS011;26950;50.960;7.138;2023-06-22T04:03:16;7.38;;;5.10;;
41217;SDS011;26950;50.960;7.138;2023-06-22T04:05:45;7.57;;;5.13;;
41217;SDS011;26950;50.960;7.138;2023-06-22T04:08:13;8.80;;;5.15;;
41217;SDS011;26950;50.960;7.138;2023-06-22T04:10:40;9.00;;;5.25;;
41217;SDS011;26950;50.960;7.138;2023-06-22T04:13:07;6.93;;;5.78;;
41217;SDS011;26950;50.960;7.138;2023-06-22T04:15:33;6.30;;;5.38;;
41217;SDS011;26950;50.960;7.138;2023-06-22T04:18:00;8.50;;;5.75;;
41217;SDS011;26950;50.960;7.138;2023-06-22T04:20:26;8.77;;;5.70;;
41217;SDS011;26950;50.960;7.138;2023-06-22T04:22:54;7.85;;;5.60;;
41217;SDS011;26950;50.960;7.138;2023-06-22T04:25:21;17.15;;;6.22;;
41217;SDS011;26950;50.960;7.138;2023-06-22T04:27:48;8.57;;;6.03;;
41217;SDS011;26950;50.960;7.138;2023-06-22T04:30:14;9.05;;;6.30;;
41217;SDS011;26950;50.960;7.138;2023-06-22T04:32:45;9.60;;;6.50;;
41217;SDS011;26950;50.960;7.138;2023-06-22T04:35:22;8.93;;;6.90;;
41217;SDS011;26950;50.960;7.138;2023-06-22T04:37:49;9.48;;;7.07;;
41217;SDS011;26950;50.960;7.138;2023-06-22T04:40:21;8.02;;;7.18;;
41217;SDS011;26950;50.960;7.138;2023-06-22T04:42:48;10.57;;;7.47;;
41217;SDS011;26950;50.960;7.138;2023-06-22T04:45:18;9.50;;;7.50;;
41217;SDS011;26950;50.960;7.138;2023-06-22T04:47:44;11.20;;;7.28;;
41217;SDS011;26950;50.960;7.138;2023-06-22T04:50:11;8.65;;;7.05;;
41217;SDS011;26950;50.960;7.138;2023-06-22T04:52:37;9.98;;;8.05;;
41217;SDS011;26950;50.960;7.138;2023-06-22T04:55:04;9.30;;;7.70;;
41217;SDS011;26950;50.960;7.138;2023-06-22T04:57:33;11.55;;;7.53;;
41217;SDS011;26950;50.960;7.138;2023-06-22T05:00:00;8.18;;;7.15;;
41217;SDS011;26950;50.960;7.138;2023-06-22T05:02:37;8.02;;;6.85;;
41217;SDS011;26950;50.960;7.138;2023-06-22T05:05:04;9.40;;;7.57;;
41217;SDS011;26950;50.960;7.138;2023-06-22T05:07:32;8.38;;;7.25;;
41217;SDS011;26950;50.960;7.138;2023-06-22T05:10:01;13.13;;;7.80;;
41217;SDS011;26950;50.960;7.138;2023-06-22T05:12:28;9.38;;;7.47;;
41217;SDS011;26950;50.960;7.138;2023-06-22T05:14:57;10.30;;;7.75;;
41217;SDS011;26950;50.960;7.138;2023-06-22T05:17:23;9.70;;;7.18;;
41217;SDS011;26950;50.960;7.138;2023-06-22T05:19:50;9.00;;;7.32;;
41217;SDS011;26950;50.960;7.138;2023-06-22T05:22:17;8.77;;;7.35;;
41217;SDS011;26950;50.960;7.138;2023-06-22T05:24:44;10.63;;;7.70;;
41217;SDS011;26950;50.960;7.138;2023-06-22T05:27:10;8.23;;;7.22;;
41217;SDS011;26950;50.960;7.138;2023-06-22T05:29:37;9.75;;;7.28;;
41217;SDS011;26950;50.960;7.138;2023-06-22T05:32:05;10.27;;;7.68;;
41217;SDS011;26950;50.960;7.138;2023-06-22T05:34:32;10.88;;;6.93;;
41217;SDS011;26950;50.960;7.138;2023-06-22T05:36:59;10.75;;;7.38;;
41217;SDS011;26950;50.960;7.138;2023-06-22T05:39:25;11.23;;;6.93;;
41217;SDS011;26950;50.960;7.138;2023-06-22T05:41:52;8.85;;;7.40;;
41217;SDS011;26950;50.960;7.138;2023-06-22T05:44:18;8.57;;;6.82;;
41217;SDS011;26950;50.960;7.138;2023-06-22T05:46:45;10.40;;;7.35;;
41217;SDS011;26950;50.960;7.138;2023-06-22T05:49:14;9.40;;;6.95;;
41217;SDS011;26950;50.960;7.138;2023-06-22T05:51:41;10.57;;;7.18;;
41217;SDS011;26950;50.960;7.138;2023-06-22T05:54:08;9.20;;;7.28;;
41217;SDS011;26950;50.960;7.138;2023-06-22T05:56:35;9.73;;;7.63;;
41217;SDS011;26950;50.960;7.138;2023-06-22T05:59:01;9.43;;;7.85;;
41217;SDS011;26950;50.960;7.138;2023-06-22T06:01:28;10.70;;;7.65;;
41217;SDS011;26950;50.960;7.138;2023-06-22T06:03:59;11.77;;;7.80;;
41217;SDS011;26950;50.960;7.138;2023-06-22T06:06:27;8.80;;;7.18;;
41217;SDS011;26950;50.960;7.138;2023-06-22T06:08:54;8.48;;;7.53;;
41217;SDS011;26950;50.960;7.138;2023-06-22T06:11:21;10.55;;;7.65;;
41217;SDS011;26950;50.960;7.138;2023-06-22T06:13:47;8.52;;;7.28;;
41217;SDS011;26950;50.960;7.138;2023-06-22T06:16:14;12.98;;;8.05;;
41217;SDS011;26950;50.960;7.138;2023-06-22T06:18:40;9.43;;;7.00;;
41217;SDS011;26950;50.960;7.138;2023-06-22T06:21:06;8.63;;;7.25;;
41217;SDS011;26950;50.960;7.138;2023-06-22T06:23:34;9.82;;;7.15;;
41217;SDS011;26950;50.960;7.138;2023-06-22T06:26:01;9.70;;;6.85;;
41217;SDS011;26950;50.960;7.138;2023-06-22T06:28:31;8.43;;;6.85;;
41217;SDS011;26950;50.960;7.138;2023-06-22T06:30:58;10.60;;;7.25;;
41217;SDS011;26950;50.960;7.138;2023-06-22T06:33:24;9.75;;;6.68;;
41217;SDS011;26950;50.960;7.138;2023-06-22T06:35:51;7.55;;;6.72;;
41217;SDS011;26950;50.960;7.138;2023-06-22T06:38:18;8.73;;;7.10;;
41217;SDS011;26950;50.960;7.138;2023-06-22T06:40:45;12.82;;;7.20;;
41217;SDS011;26950;50.960;7.138;2023-06-22T06:43:14;9.48;;;7.13;;
41217;SDS011;26950;50.960;7.138;2023-06-22T06:45:40;10.45;;;7.05;;
41217;SDS011;26950;50.960;7.138;2023-06-22T06:48:07;8.88;;;6.47;;
41217;SDS011;26950;50.960;7.138;2023-06-22T06:50:34;9.20;;;6.65;;
41217;SDS011;26950;50.960;7.138;2023-06-22T06:53:00;7.18;;;6.32;;
41217;SDS011;26950;50.960;7.138;2023-06-22T06:55:27;9.18;;;6.68;;
41217;SDS011;26950;50.960;7.138;2023-06-22T06:57:55;7.75;;;6.25;;
41217;SDS011;26950;50.960;7.138;2023-06-22T07:00:21;8.02;;;6.63;;
41217;SDS011;26950;50.960;7.138;2023-06-22T07:02:47;8.18;;;6.47;;
41217;SDS011;26950;50.960;7.138;2023-06-22T07:05:14;10.13;;;6.95;;
41217;SDS011;26950;50.960;7.138;2023-06-22T07:07:40;9.60;;;7.00;;
41217;SDS011;26950;50.960;7.138;2023-06-22T07:10:08;10.52;;;7.10;;
41217;SDS011;26950;50.960;7.138;2023-06-22T07:12:35;12.82;;;6.75;;
41217;SDS011;26950;50.960;7.138;2023-06-22T07:15:03;7.63;;;6.53;;
41217;SDS011;26950;50.960;7.138;2023-06-22T07:17:33;7.65;;;6.85;;
41217;SDS011;26950;50.960;7.138;2023-06-22T07:19:59;8.52;;;6.57;;
41217;SDS011;26950;50.960;7.138;2023-06-22T07:22:27;9.48;;;6.70;;
41217;SDS011;26950;50.960;7.138;2023-06-22T07:24:53;8.23;;;6.35;;
41217;SDS011;26950;50.960;7.138;2023-06-22T07:27:20;7.85;;;6.30;;
41217;SDS011;26950;50.960;7.138;2023-06-22T07:29:46;8.07;;;6.68;;
41217;SDS011;26950;50.960;7.138;2023-06-22T07:32:14;9.02;;;6.97;;
41217;SDS011;26950;50.960;7.138;2023-06-22T07:34:41;9.02;;;6.90;;
41217;SDS011;26950;50.960;7.138;2023-06-22T07:37:08;14.63;;;6.95;;
41217;SDS011;26950;50.960;7.138;2023-06-22T07:39:34;9.23;;;7.38;;
41217;SDS011;26950;50.960;7.138;2023-06-22T07:42:02;7.65;;;6.47;;
41217;SDS011;26950;50.960;7.138;2023-06-22T07:44:29;8.25;;;6.60;;
41217;SDS011;26950;50.960;7.138;2023-06-22T07:46:56;8.43;;;6.80;;
41217;SDS011;26950;50.960;7.138;2023-06-22T07:49:24;9.23;;;6.70;;
41217;SDS011;26950;50.960;7.138;2023-06-22T07:51:50;8.95;;;6.35;;
41217;SDS011;26950;50.960;7.138;2023-06-22T07:54:17;10.68;;;6.60;;
41217;SDS011;26950;50.960;7.138;2023-06-22T07:56:43;8.80;;;6.47;;
41217;SDS011;26950;50.960;7.138;2023-06-22T07:59:10;10.90;;;6.50;;
41217;SDS011;26950;50.960;7.138;2023-06-22T08:01:36;8.07;;;6.45;;
41217;SDS011;26950;50.960;7.138;2023-06-22T08:04:03;8.82;;;6.22;;
41217;SDS011;26950;50.960;7.138;2023-06-22T08:06:32;8.35;;;6.47;;
41217;SDS011;26950;50.960;7.138;2023-06-22T08:08:58;8.48;;;6.30;;
41217;SDS011;26950;50.960;7.138;2023-06-22T08:11:25;8.25;;;6.43;;
41217;SDS011;26950;50.960;7.138;2023-06-22T08:13:51;7.20;;;6.38;;
41217;SDS011;26950;50.960;7.138;2023-06-22T08:16:20;7.72;;;5.85;;
41217;SDS011;26950;50.960;7.138;2023-06-22T08:18:47;10.90;;;6.47;;
41217;SDS011;26950;50.960;7.138;2023-06-22T08:21:13;8.68;;;6.50;;
41217;SDS011;26950;50.960;7.138;2023-06-22T08:23:42;9.38;;;6.15;;
41217;SDS011;26950;50.960;7.138;2023-06-22T08:26:08;6.95;;;5.93;;
41217;SDS011;26950;50.960;7.138;2023-06-22T08:28:35;7.80;;;6.40;;
41217;SDS011;26950;50.960;7.138;2023-06-22T08:31:01;8.75;;;6.63;;
41217;SDS011;26950;50.960;7.138;2023-06-22T08:33:28;7.60;;;6.80;;
41217;SDS011;26950;50.960;7.138;2023-06-22T08:35:56;8.27;;;6.45;;
41217;SDS011;26950;50.960;7.138;2023-06-22T08:38:24;9.75;;;6.70;;
41217;SDS011;26950;50.960;7.138;2023-06-22T08:40:52;8.20;;;6.78;;
41217;SDS011;26950;50.960;7.138;2023-06-22T08:43:18;11.68;;;6.82;;
41217;SDS011;26950;50.960;7.138;2023-06-22T08:45:45;7.57;;;6.78;;
41217;SDS011;26950;50.960;7.138;2023-06-22T08:48:11;8.40;;;6.80;;
41217;SDS011;26950;50.960;7.138;2023-06-22T08:50:38;8.35;;;6.75;;
41217;SDS011;26950;50.960;7.138;2023-06-22T08:53:05;10.75;;;6.72;;
41217;SDS011;26950;50.960;7.138;2023-06-22T08:55:32;8.23;;;6.50;;
41217;SDS011;26950;50.960;7.138;2023-06-22T08:58:01;8.68;;;6.40;;
41217;SDS011;26950;50.960;7.138;2023-06-22T09:00:27;8.98;;;6.85;;
41217;SDS011;26950;50.960;7.138;2023-06-22T09:02:57;9.13;;;6.63;;
41217;SDS011;26950;50.960;7.138;2023-06-22T09:05:24;7.63;;;6.53;;
41217;SDS011;26950;50.960;7.138;2023-06-22T09:07:51;10.02;;;6.70;;
41217;SDS011;26950;50.960;7.138;2023-06-22T09:10:19;9.35;;;7.00;;
41217;SDS011;26950;50.960;7.138;2023-06-22T09:12:46;9.60;;;6.88;;
41217;SDS011;26950;50.960;7.138;2023-06-22T09:15:14;8.20;;;6.90;;
41217;SDS011;26950;50.960;7.138;2023-06-22T09:17:40;7.75;;;6.45;;
41217;SDS011;26950;50.960;7.138;2023-06-22T09:20:07;7.45;;;6.65;;
41217;SDS011;26950;50.960;7.138;2023-06-22T09:22:36;9.02;;;6.60;;
41217;SDS011;26950;50.960;7.138;2023-06-22T09:25:02;8.75;;;6.45;;
41217;SDS011;26950;50.960;7.138;2023-06-22T09:27:29;9.68;;;5.60;;
41217;SDS011;26950;50.960;7.138;2023-06-22T09:29:56;8.75;;;6.38;;
41217;SDS011;26950;50.960;7.138;2023-06-22T09:32:25;7.00;;;6.30;;
41217;SDS011;26950;50.960;7.138;2023-06-22T09:34:51;7.65;;;6.10;;
41217;SDS011;26950;50.960;7.138;2023-06-22T09:37:18;7.55;;;6.25;;
41217;SDS011;26950;50.960;7.138;2023-06-22T09:39:45;8.27;;;6.05;;
41217;SDS011;26950;50.960;7.138;2023-06-22T09:42:11;8.18;;;6.25;;
41217;SDS011;26950;50.960;7.138;2023-06-22T09:44:38;7.28;;;6.47;;
41217;SDS011;26950;50.960;7.138;2023-06-22T09:47:05;6.85;;;6.07;;
41217;SDS011;26950;50.960;7.138;2023-06-22T09:49:33;9.80;;;6.28;;
41217;SDS011;26950;50.960;7.138;2023-06-22T09:52:00;8.98;;;6.57;;
41217;SDS011;26950;50.960;7.138;2023-06-22T09:54:26;10.45;;;6.45;;
41217;SDS011;26950;50.960;7.138;2023-06-22T09:56:53;8.20;;;6.53;;
41217;SDS011;26950;50.960;7.138;2023-06-22T09:59:19;8.40;;;6.60;;
41217;SDS011;26950;50.960;7.138;2023-06-22T10:01:46;8.80;;;6.82;;
41217;SDS011;26950;50.960;7.138;2023-06-22T10:04:12;11.57;;;7.00;;
41217;SDS011;26950;50.960;7.138;2023-06-22T10:06:40;8.23;;;6.85;;
41217;SDS011;26950;50.960;7.138;2023-06-22T10:09:07;8.32;;;6.95;;
41217;SDS011;26950;50.960;7.138;2023-06-22T10:11:33;8.15;;;6.75;;
41217;SDS011;26950;50.960;7.138;2023-06-22T10:14:00;10.13;;;7.65;;
41217;SDS011;26950;50.960;7.138;2023-06-22T10:16:30;10.77;;;7.15;;
41217;SDS011;26950;50.960;7.138;2023-06-22T10:18:57;9.10;;;6.88;;
41217;SDS011;26950;50.960;7.138;2023-06-22T10:21:24;11.98;;;7.45;;
41217;SDS011;26950;50.960;7.138;2023-06-22T10:23:53;7.72;;;6.75;;
41217;SDS011;26950;50.960;7.138;2023-06-22T10:26:19;8.52;;;7.03;;
41217;SDS011;26950;50.960;7.138;2023-06-22T10:28:46;10.05;;;6.85;;
41217;SDS011;26950;50.960;7.138;2023-06-22T10:31:12;15.15;;;7.00;;
41217;SDS011;26950;50.960;7.138;2023-06-22T10:33:40;11.23;;;7.43;;
41217;SDS011;26950;50.960;7.138;2023-06-22T10:36:08;10.13;;;6.88;;
41217;SDS011;26950;50.960;7.138;2023-06-22T10:38:34;10.50;;;7.28;;
41217;SDS011;26950;50.960;7.138;2023-06-22T10:41:02;9.15;;;7.22;;
41217;SDS011;26950;50.960;7.138;2023-06-22T10:43:29;9.52;;;7.82;;
41217;SDS011;26950;50.960;7.138;2023-06-22T10:45:55;10.45;;;7.22;;
41217;SDS011;26950;50.960;7.138;2023-06-22T10:48:21;12.38;;;8.05;;
41217;SDS011;26950;50.960;7.138;2023-06-22T10:50:48;10.52;;;7.80;;
41217;SDS011;26950;50.960;7.138;2023-06-22T10:53:14;10.95;;;7.50;;
41217;SDS011;26950;50.960;7.138;2023-06-22T10:55:41;13.63;;;8.02;;
41217;SDS011;26950;50.960;7.138;2023-06-22T10:58:08;14.70;;;8.25;;
41217;SDS011;26950;50.960;7.138;2023-06-22T11:00:35;12.90;;;8.20;;
41217;SDS011;26950;50.960;7.138;2023-06-22T11:03:02;13.85;;;7.30;;
41217;SDS011;26950;50.960;7.138;2023-06-22T11:05:28;14.65;;;8.38;;
41217;SDS011;26950;50.960;7.138;2023-06-22T11:07:55;11.80;;;8.10;;
41217;SDS011;26950;50.960;7.138;2023-06-22T11:10:21;10.95;;;8.68;;
41217;SDS011;26950;50.960;7.138;2023-06-22T11:12:48;10.98;;;7.88;;
41217;SDS011;26950;50.960;7.138;2023-06-22T11:15:16;14.75;;;8.98;;
41217;SDS011;26950;50.960;7.138;2023-06-22T11:17:42;15.65;;;9.63;;
41217;SDS011;26950;50.960;7.138;2023-06-22T11:20:09;12.77;;;9.02;;
41217;SDS011;26950;50.960;7.138;2023-06-22T11:22:37;16.60;;;9.40;;
41217;SDS011;26950;50.960;7.138;2023-06-22T11:25:04;17.30;;;9.70;;
41217;SDS011;26950;50.960;7.138;2023-06-22T11:27:31;25.60;;;11.57;;
41217;SDS011;26950;50.960;7.138;2023-06-22T11:29:58;24.08;;;11.32;;
41217;SDS011;26950;50.960;7.138;2023-06-22T11:32:26;23.15;;;10.80;;
41217;SDS011;26950;50.960;7.138;2023-06-22T11:34:53;23.10;;;11.30;;
41217;SDS011;26950;50.960;7.138;2023-06-22T11:37:19;17.08;;;10.77;;
41217;SDS011;26950;50.960;7.138;2023-06-22T11:39:46;17.58;;;10.63;;
41217;SDS011;26950;50.960;7.138;2023-06-22T11:42:12;15.48;;;11.60;;
41217;SDS011;26950;50.960;7.138;2023-06-22T11:44:39;14.65;;;10.57;;
41217;SDS011;26950;50.960;7.138;2023-06-22T11:47:05;12.98;;;9.77;;
41217;SDS011;26950;50.960;7.138;2023-06-22T11:49:33;15.15;;;10.00;;
41217;SDS011;26950;50.960;7.138;2023-06-22T11:52:00;15.27;;;10.68;;
41217;SDS011;26950;50.960;7.138;2023-06-22T11:54:26;15.63;;;10.38;;
41217;SDS011;26950;50.960;7.138;2023-06-22T11:56:53;15.88;;;11.05;;
41217;SDS011;26950;50.960;7.138;2023-06-22T11:59:19;16.88;;;10.75;;
41217;SDS011;26950;50.960;7.138;2023-06-22T12:01:47;14.95;;;10.82;;
41217;SDS011;26950;50.960;7.138;2023-06-22T12:04:15;15.10;;;11.38;;
41217;SDS011;26950;50.960;7.138;2023-06-22T12:06:43;17.23;;;11.45;;
41217;SDS011;26950;50.960;7.138;2023-06-22T12:09:09;15.57;;;11.60;;
41217;SDS011;26950;50.960;7.138;2023-06-22T12:11:38;15.00;;;10.82;;
41217;SDS011;26950;50.960;7.138;2023-06-22T12:14:05;13.77;;;10.30;;
41217;SDS011;26950;50.960;7.138;2023-06-22T12:16:31;14.38;;;10.55;;
41217;SDS011;26950;50.960;7.138;2023-06-22T12:18:58;15.02;;;10.43;;
41217;SDS011;26950;50.960;7.138;2023-06-22T12:21:24;14.18;;;10.95;;
41217;SDS011;26950;50.960;7.138;2023-06-22T12:23:52;14.57;;;10.52;;
41217;SDS011;26950;50.960;7.138;2023-06-22T12:26:19;13.40;;;10.73;;
41217;SDS011;26950;50.960;7.138;2023-06-22T12:28:45;13.60;;;10.57;;
41217;SDS011;26950;50.960;7.138;2023-06-22T12:31:11;15.25;;;10.73;;
41217;SDS011;26950;50.960;7.138;2023-06-22T12:33:39;13.70;;;10.63;;
41217;SDS011;26950;50.960;7.138;2023-06-22T12:36:05;13.73;;;10.90;;
41217;SDS011;26950;50.960;7.138;2023-06-22T12:38:32;23.83;;;17.13;;
41217;SDS011;26950;50.960;7.138;2023-06-22T12:41:00;18.80;;;11.32;;
41217;SDS011;26950;50.960;7.138;2023-06-22T12:43:27;13.55;;;10.88;;
41217;SDS011;26950;50.960;7.138;2023-06-22T12:45:54;16.83;;;10.88;;
41217;SDS011;26950;50.960;7.138;2023-06-22T12:48:21;13.40;;;9.88;;
41217;SDS011;26950;50.960;7.138;2023-06-22T12:50:48;15.73;;;11.07;;
41217;SDS011;26950;50.960;7.138;2023-06-22T12:53:14;16.27;;;11.25;;
41217;SDS011;26950;50.960;7.138;2023-06-22T12:55:41;14.50;;;11.00;;
41217;SDS011;26950;50.960;7.138;2023-06-22T12:58:09;13.60;;;10.43;;
41217;SDS011;26950;50.960;7.138;2023-06-22T13:00:35;15.50;;;10.57;;
41217;SDS011;26950;50.960;7.138;2023-06-22T13:03:02;14.93;;;12.02;;
41217;SDS011;26950;50.960;7.138;2023-06-22T13:05:28;13.30;;;10.93;;
41217;SDS011;26950;50.960;7.138;2023-06-22T13:07:55;11.95;;;10.02;;
41217;SDS011;26950;50.960;7.138;2023-06-22T13:10:22;13.98;;;11.63;;
41217;SDS011;26950;50.960;7.138;2023-06-22T13:12:48;12.65;;;9.88;;
41217;SDS011;26950;50.960;7.138;2023-06-22T13:15:16;11.98;;;10.00;;
41217;SDS011;26950;50.960;7.138;2023-06-22T13:17:43;11.05;;;9.23;;
41217;SDS011;26950;50.960;7.138;2023-06-22T13:20:09;13.52;;;9.30;;
41217;SDS011;26950;50.960;7.138;2023-06-22T13:22:37;12.43;;;10.00;;
41217;SDS011;26950;50.960;7.138;2023-06-22T13:25:07;10.75;;;9.02;;
41217;SDS011;26950;50.960;7.138;2023-06-22T13:27:37;11.77;;;9.52;;
41217;SDS011;26950;50.960;7.138;2023-06-22T13:30:03;10.95;;;8.98;;
41217;SDS011;26950;50.960;7.138;2023-06-22T13:32:32;11.35;;;8.43;;
41217;SDS011;26950;50.960;7.138;2023-06-22T13:35:01;8.75;;;7.80;;
41217;SDS011;26950;50.960;7.138;2023-06-22T13:37:28;9.57;;;7.75;;
41217;SDS011;26950;50.960;7.138;2023-06-22T13:39:54;9.48;;;7.28;;
41217;SDS011;26950;50.960;7.138;2023-06-22T13:42:21;8.57;;;6.85;;
41217;SDS011;26950;50.960;7.138;2023-06-22T13:44:47;9.50;;;6.93;;
41217;SDS011;26950;50.960;7.138;2023-06-22T13:47:14;7.75;;;6.30;;
41217;SDS011;26950;50.960;7.138;2023-06-22T13:49:42;6.10;;;5.47;;
41217;SDS011;26950;50.960;7.138;2023-06-22T13:52:08;6.97;;;5.65;;
41217;SDS011;26950;50.960;7.138;2023-06-22T13:54:37;6.20;;;5.57;;
41217;SDS011;26950;50.960;7.138;2023-06-22T13:57:04;7.55;;;5.15;;
41217;SDS011;26950;50.960;7.138;2023-06-22T13:59:31;7.38;;;4.85;;
41217;SDS011;26950;50.960;7.138;2023-06-22T14:01:57;6.57;;;5.45;;
41217;SDS011;26950;50.960;7.138;2023-06-22T14:04:24;6.00;;;5.40;;
41217;SDS011;26950;50.960;7.138;2023-06-22T14:06:52;7.05;;;5.40;;
41217;SDS011;26950;50.960;7.138;2023-06-22T14:09:21;7.43;;;5.75;;
41217;SDS011;26950;50.960;7.138;2023-06-22T14:11:47;9.07;;;5.80;;
41217;SDS011;26950;50.960;7.138;2023-06-22T14:14:14;9.23;;;5.75;;
41217;SDS011;26950;50.960;7.138;2023-06-22T14:16:40;9.77;;;5.90;;
41217;SDS011;26950;50.960;7.138;2023-06-22T14:19:07;10.30;;;6.55;;
41217;SDS011;26950;50.960;7.138;2023-06-22T14:21:33;6.95;;;5.90;;
41217;SDS011;26950;50.960;7.138;2023-06-22T14:24:01;7.93;;;6.30;;
41217;SDS011;26950;50.960;7.138;2023-06-22T14:26:27;7.45;;;5.80;;
41217;SDS011;26950;50.960;7.138;2023-06-22T14:28:54;7.68;;;6.40;;
41217;SDS011;26950;50.960;7.138;2023-06-22T14:31:21;8.60;;;5.82;;
41217;SDS011;26950;50.960;7.138;2023-06-22T14:33:48;7.85;;;6.32;;
41217;SDS011;26950;50.960;7.138;2023-06-22T14:36:16;8.50;;;5.85;;
41217;SDS011;26950;50.960;7.138;2023-06-22T14:38:43;10.00;;;6.15;;
41217;SDS011;26950;50.960;7.138;2023-06-22T14:41:12;6.45;;;5.78;;
41217;SDS011;26950;50.960;7.138;2023-06-22T14:43:43;8.18;;;6.25;;